Time;durP1;ratioP1;P1;durP2;ratioP2;P2;SDS_P1;SDS_P2;PMS_P1;PMS_P2;Temp;Humidity;BMP_temperature;BMP_pressure;BME280_temperature;BME280_humidity;BME280_pressure;Samples;Min_cycle;Max_cycle;Signal;HPM_P1;HPM_P2
2024/01/27 00:00:09;;;;;;;13.95;2.40;;;3.80;99.90;;;;;;5073438;28;20041;-52
2024/01/27 00:02:35;;;;;;;14.43;1.92;;;4.10;99.90;;;;;;5073299;28;20047;-50
2024/01/27 00:05:01;;;;;;;16.58;2.10;;;4.00;99.90;;;;;;5073398;28;20123;-50
2024/01/27 00:07:28;;;;;;;14.65;2.60;;;3.80;99.90;;;;;;5072019;28;20190;-48
2024/01/27 00:09:58;;;;;;;8.80;1.95;;;2.90;99.90;;;;;;5073306;28;20070;-50
2024/01/27 00:12:24;;;;;;;7.20;1.70;;;4.10;99.90;;;;;;5073378;28;20044;-48
2024/01/27 00:14:50;;;;;;;12.20;1.92;;;3.80;99.90;;;;;;5073493;28;20040;-49
2024/01/27 00:17:16;;;;;;;15.93;2.58;;;4.00;99.90;;;;;;5073019;28;20105;-50
2024/01/27 00:19:41;;;;;;;14.50;2.53;;;3.00;99.90;;;;;;5073311;28;20047;-48
2024/01/27 00:22:07;;;;;;;17.40;2.05;;;3.30;99.90;;;;;;5073176;28;20047;-50
2024/01/27 00:24:33;;;;;;;16.42;2.53;;;4.00;99.90;;;;;;5072911;28;20106;-48
2024/01/27 00:27:00;;;;;;;13.85;2.15;;;4.10;99.90;;;;;;5073034;28;20036;-50
2024/01/27 00:29:26;;;;;;;14.35;2.08;;;4.00;99.90;;;;;;5072870;28;20050;-50
2024/01/27 00:31:54;;;;;;;17.60;2.47;;;3.00;99.90;;;;;;5072955;28;20055;-49
2024/01/27 00:34:20;;;;;;;21.10;2.95;;;4.30;99.90;;;;;;5072891;28;20435;-50
2024/01/27 00:36:48;;;;;;;18.38;2.67;;;3.20;99.90;;;;;;5072667;28;20036;-50
2024/01/27 00:39:18;;;;;;;11.20;2.10;;;3.00;99.90;;;;;;5072745;28;20048;-50
2024/01/27 00:41:44;;;;;;;20.48;2.33;;;4.10;99.90;;;;;;5072606;28;20045;-50
2024/01/27 00:44:11;;;;;;;12.95;1.77;;;3.00;99.90;;;;;;5071478;28;20131;-48
2024/01/27 00:46:37;;;;;;;10.02;1.90;;;2.80;99.90;;;;;;5072475;28;20045;-47
2024/01/27 00:49:03;;;;;;;14.80;1.80;;;2.90;99.90;;;;;;5072697;28;20481;-49
2024/01/27 00:51:29;;;;;;;14.85;2.55;;;4.00;99.90;;;;;;5072333;28;20075;-48
2024/01/27 00:53:55;;;;;;;13.85;2.20;;;4.10;99.90;;;;;;5072298;28;20435;-50
2024/01/27 00:56:20;;;;;;;12.68;2.17;;;4.00;99.90;;;;;;5071544;28;20435;-50
2024/01/27 00:58:46;;;;;;;18.08;2.33;;;2.80;99.90;;;;;;5072965;28;20036;-49
2024/01/27 01:01:12;;;;;;;11.65;2.03;;;3.00;99.90;;;;;;5071225;28;20579;-49
2024/01/27 01:03:37;;;;;;;13.15;2.55;;;3.90;99.90;;;;;;5071136;28;20075;-47
2024/01/27 01:06:03;;;;;;;13.02;2.78;;;3.10;99.90;;;;;;5072158;28;20072;-47
2024/01/27 01:08:29;;;;;;;20.92;2.90;;;4.10;99.90;;;;;;5072400;28;20044;-50
2024/01/27 01:10:55;;;;;;;16.45;1.88;;;3.80;99.90;;;;;;5072500;28;20063;-49
2024/01/27 01:13:20;;;;;;;10.68;2.28;;;2.70;99.90;;;;;;5072308;28;20463;-48
2024/01/27 01:15:46;;;;;;;15.55;2.05;;;2.90;99.90;;;;;;5072145;28;20040;-52
2024/01/27 01:18:12;;;;;;;12.77;2.33;;;2.80;99.90;;;;;;5072237;28;20033;-49
2024/01/27 01:20:37;;;;;;;13.45;1.95;;;3.70;99.90;;;;;;5072231;28;20037;-49
2024/01/27 01:23:03;;;;;;;13.95;2.25;;;3.10;99.90;;;;;;5070790;28;20101;-50
2024/01/27 01:25:29;;;;;;;16.30;2.92;;;3.70;99.90;;;;;;5072151;28;20060;-49
2024/01/27 01:27:55;;;;;;;18.88;2.53;;;3.90;99.90;;;;;;5071940;28;20089;-53
2024/01/27 01:30:20;;;;;;;16.85;2.53;;;4.00;99.90;;;;;;5070777;28;20080;-47
2024/01/27 01:32:46;;;;;;;15.73;2.42;;;4.00;99.90;;;;;;5071928;28;20040;-48
2024/01/27 01:35:12;;;;;;;18.75;2.58;;;2.70;99.90;;;;;;5072208;28;20041;-49
2024/01/27 01:37:38;;;;;;;21.90;2.20;;;4.00;99.90;;;;;;5071747;28;20037;-50
2024/01/27 01:40:05;;;;;;;19.42;2.95;;;3.20;99.90;;;;;;5071997;28;20369;-51
2024/01/27 01:42:30;;;;;;;14.57;2.30;;;2.90;99.90;;;;;;5070494;28;20044;-48
2024/01/27 01:44:56;;;;;;;27.77;3.53;;;2.90;99.90;;;;;;5071929;28;20052;-48
2024/01/27 01:47:22;;;;;;;18.15;2.85;;;3.80;99.90;;;;;;5071857;28;20048;-48
2024/01/27 01:49:48;;;;;;;20.25;2.30;;;3.80;99.90;;;;;;5070759;28;20484;-47
2024/01/27 01:52:19;;;;;;;18.30;2.88;;;3.90;99.90;;;;;;5070401;28;20535;-48
2024/01/27 01:54:49;;;;;;;13.35;1.98;;;3.80;99.90;;;;;;5071855;28;20047;-47
2024/01/27 01:57:15;;;;;;;15.55;2.67;;;3.10;99.90;;;;;;5071587;28;20044;-48
2024/01/27 01:59:41;;;;;;;16.42;2.28;;;2.60;99.90;;;;;;5071728;28;20033;-48
2024/01/27 02:02:08;;;;;;;22.92;2.67;;;2.50;99.90;;;;;;5071911;28;20052;-49
2024/01/27 02:04:41;;;;;;;20.30;2.53;;;3.90;99.90;;;;;;5073646;28;20048;-49
2024/01/27 02:07:07;;;;;;;21.73;2.90;;;2.70;99.90;;;;;;5075479;28;20097;-50
2024/01/27 02:09:32;;;;;;;15.75;2.53;;;3.50;99.90;;;;;;5075611;28;20044;-47
2024/01/27 02:11:58;;;;;;;15.15;2.28;;;3.40;99.90;;;;;;5075767;28;20040;-48
2024/01/27 02:14:26;;;;;;;17.67;3.33;;;3.80;99.90;;;;;;5075516;28;20116;-49
2024/01/27 02:16:52;;;;;;;12.63;2.58;;;3.00;99.90;;;;;;5075446;28;20087;-47
2024/01/27 02:19:17;;;;;;;15.40;3.63;;;2.50;99.90;;;;;;5075632;28;20079;-48
2024/01/27 02:21:43;;;;;;;18.25;2.53;;;2.40;99.90;;;;;;5074389;28;20041;-47
2024/01/27 02:24:09;;;;;;;23.35;2.45;;;3.50;99.90;;;;;;5075293;28;20093;-49
2024/01/27 02:26:35;;;;;;;15.48;2.53;;;3.20;99.90;;;;;;5075207;28;20048;-50
2024/01/27 02:29:00;;;;;;;18.33;2.13;;;2.40;99.90;;;;;;5075392;28;20397;-50
2024/01/27 02:31:26;;;;;;;12.50;2.10;;;3.10;99.90;;;;;;5074928;28;20124;-49
2024/01/27 02:33:52;;;;;;;16.52;2.60;;;3.10;99.90;;;;;;5075255;28;20044;-47
2024/01/27 02:36:18;;;;;;;22.13;3.58;;;3.70;99.90;;;;;;5075270;28;20032;-49
2024/01/27 02:38:43;;;;;;;15.27;3.00;;;2.40;99.90;;;;;;5075202;28;20102;-47
2024/01/27 02:41:12;;;;;;;25.48;3.17;;;2.40;99.90;;;;;;5075349;28;20115;-48
2024/01/27 02:43:38;;;;;;;18.35;3.10;;;2.60;99.90;;;;;;5075172;28;20041;-48
2024/01/27 02:46:12;;;;;;;19.85;3.97;;;2.50;99.90;;;;;;5075164;28;20037;-49
2024/01/27 02:48:42;;;;;;;18.92;3.28;;;2.40;99.90;;;;;;5075032;28;20055;-48
2024/01/27 02:51:08;;;;;;;24.50;3.17;;;2.40;99.90;;;;;;5074860;28;20048;-50
2024/01/27 02:53:34;;;;;;;15.27;2.85;;;3.50;99.90;;;;;;5074443;28;20456;-51
2024/01/27 02:55:59;;;;;;;17.63;2.72;;;3.80;99.90;;;;;;5074920;28;20040;-51
2024/01/27 02:58:25;;;;;;;15.95;3.40;;;2.90;99.90;;;;;;5074831;28;20472;-51
2024/01/27 03:00:51;;;;;;;21.08;2.97;;;3.80;99.90;;;;;;5074753;28;20078;-50
2024/01/27 03:03:16;;;;;;;18.10;3.90;;;3.90;99.90;;;;;;5073412;28;20047;-51
2024/01/27 03:05:42;;;;;;;12.20;2.67;;;3.70;99.90;;;;;;5073290;28;20454;-49
2024/01/27 03:08:07;;;;;;;20.58;4.22;;;3.70;99.90;;;;;;5074873;28;20052;-52
2024/01/27 03:10:33;;;;;;;25.15;4.07;;;3.80;99.90;;;;;;5074599;28;20044;-49
2024/01/27 03:12:59;;;;;;;18.95;3.42;;;3.80;99.90;;;;;;5074558;28;20040;-48
2024/01/27 03:15:25;;;;;;;16.75;2.97;;;3.30;99.90;;;;;;5074144;28;20127;-50
2024/01/27 03:17:50;;;;;;;16.33;3.08;;;3.60;99.90;;;;;;5073369;28;20041;-47
2024/01/27 03:20:16;;;;;;;16.98;3.45;;;3.70;99.90;;;;;;5072868;28;20431;-49
2024/01/27 03:22:42;;;;;;;17.08;2.60;;;2.30;99.90;;;;;;5072972;28;20053;-51
2024/01/27 03:25:10;;;;;;;18.05;3.08;;;3.20;99.90;;;;;;5074403;28;20043;-49
2024/01/27 03:27:36;;;;;;;20.90;3.28;;;3.80;99.90;;;;;;5074149;28;20484;-48
2024/01/27 03:30:03;;;;;;;18.00;3.05;;;2.40;99.90;;;;;;5072842;28;20110;-47
2024/01/27 03:32:32;;;;;;;16.38;3.95;;;2.40;99.90;;;;;;5074203;28;20079;-47
2024/01/27 03:34:59;;;;;;;16.73;2.70;;;2.40;99.90;;;;;;5073933;28;20040;-47
2024/01/27 03:37:24;;;;;;;17.45;2.78;;;2.30;99.90;;;;;;5073949;28;20093;-48
2024/01/27 03:39:50;;;;;;;24.17;3.08;;;3.70;99.90;;;;;;5074137;28;20131;-48
2024/01/27 03:42:16;;;;;;;16.98;3.35;;;3.60;99.90;;;;;;5072765;28;20045;-48
2024/01/27 03:44:41;;;;;;;15.07;2.40;;;2.90;99.90;;;;;;5074025;28;20052;-48
2024/01/27 03:47:07;;;;;;;17.13;3.05;;;2.70;99.90;;;;;;5073695;28;20043;-48
2024/01/27 03:49:33;;;;;;;14.02;2.55;;;3.70;99.90;;;;;;5073637;28;20059;-48
2024/01/27 03:51:58;;;;;;;21.48;2.92;;;2.20;99.90;;;;;;5073568;28;20083;-48
2024/01/27 03:54:24;;;;;;;20.63;3.00;;;3.20;99.90;;;;;;5073888;28;20045;-47
2024/01/27 03:56:50;;;;;;;19.25;2.55;;;3.60;99.90;;;;;;5073907;28;20079;-47
2024/01/27 03:59:15;;;;;;;21.65;3.65;;;2.20;99.90;;;;;;5073862;28;20048;-47
2024/01/27 04:01:41;;;;;;;24.42;3.15;;;2.30;99.90;;;;;;5073764;28;20123;-47
2024/01/27 04:04:07;;;;;;;27.00;3.50;;;2.30;99.90;;;;;;5073310;28;20036;-47
2024/01/27 04:06:37;;;;;;;20.80;2.60;;;3.70;99.90;;;;;;5073503;28;20052;-48
2024/01/27 04:09:03;;;;;;;21.17;4.47;;;3.70;99.90;;;;;;5073343;28;20044;-49
2024/01/27 04:11:29;;;;;;;21.95;3.30;;;2.30;99.90;;;;;;5073441;28;20109;-50
2024/01/27 04:13:55;;;;;;;17.83;3.58;;;3.10;99.90;;;;;;5073565;28;20047;-51
2024/01/27 04:16:20;;;;;;;21.48;3.25;;;2.60;99.90;;;;;;5073154;28;20040;-47
2024/01/27 04:18:46;;;;;;;21.33;4.00;;;3.90;99.90;;;;;;5072977;28;20451;-49
2024/01/27 04:21:12;;;;;;;25.30;3.28;;;4.00;99.90;;;;;;5073471;28;20107;-50
2024/01/27 04:23:38;;;;;;;16.38;2.85;;;3.90;99.90;;;;;;5073161;28;20051;-50
2024/01/27 04:26:06;;;;;;;18.35;2.63;;;2.40;99.90;;;;;;5072603;28;20392;-48
2024/01/27 04:28:31;;;;;;;25.08;5.38;;;2.50;99.90;;;;;;5072847;28;20119;-50
2024/01/27 04:30:57;;;;;;;18.85;3.05;;;3.80;99.90;;;;;;5072842;28;20120;-49
2024/01/27 04:33:23;;;;;;;20.23;2.67;;;2.50;99.90;;;;;;5072716;28;20040;-47
2024/01/27 04:35:48;;;;;;;19.00;2.72;;;3.70;99.90;;;;;;5071846;28;20052;-49
2024/01/27 04:38:14;;;;;;;21.38;3.28;;;2.60;99.90;;;;;;5071819;28;20067;-50
2024/01/27 04:40:40;;;;;;;18.65;3.20;;;3.90;99.90;;;;;;5072885;28;20047;-47
2024/01/27 04:43:05;;;;;;;17.85;2.30;;;3.70;99.90;;;;;;5072775;28;20040;-47
2024/01/27 04:45:31;;;;;;;23.15;3.80;;;3.40;99.90;;;;;;5072920;28;20140;-47
2024/01/27 04:47:57;;;;;;;20.30;3.53;;;3.40;99.90;;;;;;5072377;28;20063;-48
2024/01/27 04:50:23;;;;;;;17.58;3.63;;;3.90;99.90;;;;;;5072685;28;20044;-48
2024/01/27 04:52:48;;;;;;;24.17;2.95;;;2.60;99.90;;;;;;5072123;28;20063;-49
2024/01/27 04:55:14;;;;;;;19.77;3.15;;;2.50;99.90;;;;;;5072638;28;20036;-46
2024/01/27 04:57:40;;;;;;;18.75;3.20;;;3.80;99.90;;;;;;5072377;28;20634;-50
2024/01/27 05:00:11;;;;;;;21.15;2.70;;;3.70;99.90;;;;;;5072435;28;20081;-49
2024/01/27 05:02:41;;;;;;;26.55;3.47;;;3.50;99.90;;;;;;5072289;28;20125;-48
2024/01/27 05:05:07;;;;;;;17.80;3.22;;;2.40;99.90;;;;;;5072397;28;20048;-48
2024/01/27 05:07:33;;;;;;;17.55;2.83;;;2.50;99.90;;;;;;5072350;28;20040;-49
2024/01/27 05:09:59;;;;;;;20.58;3.67;;;3.90;99.90;;;;;;5072370;28;20035;-51
2024/01/27 05:12:25;;;;;;;19.65;4.60;;;3.90;99.90;;;;;;5072490;28;20044;-49
2024/01/27 05:14:50;;;;;;;16.35;2.67;;;3.60;99.90;;;;;;5072280;28;20048;-50
2024/01/27 05:17:16;;;;;;;18.55;2.70;;;3.20;99.90;;;;;;5072067;28;20036;-51
2024/01/27 05:19:42;;;;;;;16.55;2.60;;;2.40;99.90;;;;;;5072047;28;20043;-50
2024/01/27 05:22:07;;;;;;;15.02;2.47;;;3.80;99.90;;;;;;5072341;28;20489;-48
2024/01/27 05:24:33;;;;;;;25.25;3.28;;;3.70;99.90;;;;;;5072250;28;20044;-49
2024/01/27 05:26:59;;;;;;;19.23;3.13;;;2.80;99.90;;;;;;5072083;28;20036;-48
2024/01/27 05:29:27;;;;;;;18.92;3.30;;;3.20;99.90;;;;;;5070687;28;20120;-49
2024/01/27 05:31:54;;;;;;;15.20;3.35;;;2.40;99.90;;;;;;5070663;28;20110;-48
2024/01/27 05:34:20;;;;;;;18.17;2.97;;;2.80;99.90;;;;;;5072207;28;20043;-52
2024/01/27 05:36:47;;;;;;;17.13;3.20;;;3.50;99.90;;;;;;5072146;28;20128;-49
2024/01/27 05:39:13;;;;;;;18.05;2.42;;;3.50;99.90;;;;;;5072141;28;20044;-49
2024/01/27 05:41:39;;;;;;;19.98;2.45;;;2.40;99.90;;;;;;5070825;28;20044;-49
2024/01/27 05:44:04;;;;;;;22.27;4.70;;;3.20;99.90;;;;;;5072156;28;20086;-51
2024/01/27 05:46:30;;;;;;;17.38;3.17;;;2.60;99.90;;;;;;5071941;28;20535;-50
2024/01/27 05:49:01;;;;;;;15.20;2.92;;;3.20;99.90;;;;;;5072107;28;20093;-46
2024/01/27 05:51:26;;;;;;;14.02;3.13;;;2.50;99.90;;;;;;5070643;28;20551;-48
2024/01/27 05:53:52;;;;;;;17.75;2.50;;;3.00;99.90;;;;;;5071697;28;20060;-49
2024/01/27 05:56:21;;;;;;;15.73;1.75;;;2.10;99.90;;;;;;5071836;28;20519;-50
2024/01/27 05:58:49;;;;;;;10.50;1.95;;;3.50;99.90;;;;;;5071755;28;20036;-50
2024/01/27 06:01:17;;;;;;;16.98;2.50;;;3.40;99.90;;;;;;5071988;28;20037;-48
2024/01/27 06:03:43;;;;;;;19.38;2.22;;;3.40;99.90;;;;;;5071779;28;20093;-48
2024/01/27 06:06:09;;;;;;;16.30;3.00;;;2.20;99.90;;;;;;5071338;28;20133;-49
2024/01/27 06:08:35;;;;;;;15.60;2.95;;;3.10;99.90;;;;;;5071657;28;20499;-51
2024/01/27 06:11:01;;;;;;;13.13;3.22;;;2.30;99.90;;;;;;5071705;28;20044;-50
2024/01/27 06:13:26;;;;;;;16.80;3.45;;;2.10;99.90;;;;;;5071472;28;20045;-48
2024/01/27 06:15:52;;;;;;;14.60;2.40;;;3.30;99.90;;;;;;5071802;28;20040;-51
2024/01/27 06:18:18;;;;;;;11.70;2.92;;;2.50;99.90;;;;;;5070427;28;20063;-51
2024/01/27 06:20:44;;;;;;;18.48;2.50;;;2.20;99.90;;;;;;5071790;28;20036;-50
2024/01/27 06:23:09;;;;;;;12.50;2.20;;;2.60;99.90;;;;;;5071837;28;20071;-49
2024/01/27 06:25:35;;;;;;;10.20;2.05;;;2.80;99.90;;;;;;5071419;28;20132;-48
2024/01/27 06:28:01;;;;;;;17.58;2.67;;;3.40;99.90;;;;;;5071470;28;20051;-50
2024/01/27 06:30:26;;;;;;;14.70;2.55;;;2.00;99.90;;;;;;5071655;28;20028;-48
2024/01/27 06:32:52;;;;;;;17.63;2.47;;;2.10;99.90;;;;;;5071321;28;20477;-46
2024/01/27 06:35:18;;;;;;;17.50;3.22;;;2.90;99.90;;;;;;5071416;28;20037;-48
2024/01/27 06:37:43;;;;;;;16.27;2.30;;;3.20;99.90;;;;;;5071638;28;20039;-47
2024/01/27 06:40:10;;;;;;;15.63;2.25;;;3.20;99.90;;;;;;5071640;28;20097;-47
2024/01/27 06:42:35;;;;;;;14.68;2.28;;;3.10;99.90;;;;;;5071234;28;20488;-48
2024/01/27 06:45:01;;;;;;;12.82;2.03;;;2.50;99.90;;;;;;5069865;28;20067;-47
2024/01/27 06:47:27;;;;;;;17.25;2.75;;;2.00;99.90;;;;;;5071039;28;20040;-52
2024/01/27 06:49:53;;;;;;;20.48;2.17;;;2.00;99.90;;;;;;5072297;28;20045;-51
2024/01/27 06:52:18;;;;;;;15.52;2.33;;;2.10;99.90;;;;;;5074822;28;20462;-50
2024/01/27 06:54:44;;;;;;;20.33;2.75;;;1.70;99.90;;;;;;5074939;28;20049;-49
2024/01/27 06:57:22;;;;;;;13.52;2.75;;;1.70;99.90;;;;;;5074729;28;20086;-47
2024/01/27 06:59:52;;;;;;;14.00;2.75;;;2.80;99.90;;;;;;5074539;28;20037;-50
2024/01/27 07:02:22;;;;;;;13.85;2.90;;;2.20;99.90;;;;;;5074602;28;20067;-51
2024/01/27 07:04:47;;;;;;;10.93;2.08;;;1.80;99.90;;;;;;5074747;28;20044;-48
2024/01/27 07:07:13;;;;;;;14.43;3.25;;;1.80;99.90;;;;;;5074661;28;20082;-49
2024/01/27 07:09:39;;;;;;;12.52;2.28;;;3.00;99.90;;;;;;5074387;28;20492;-47
2024/01/27 07:12:05;;;;;;;16.98;2.90;;;1.90;99.90;;;;;;5074677;28;20094;-48
2024/01/27 07:14:30;;;;;;;13.30;1.85;;;2.30;99.90;;;;;;5074713;28;20401;-48
2024/01/27 07:16:56;;;;;;;15.48;3.47;;;2.10;99.90;;;;;;5074572;28;20041;-48
2024/01/27 07:19:22;;;;;;;9.25;2.22;;;1.90;99.90;;;;;;5074360;28;20040;-48
2024/01/27 07:21:47;;;;;;;14.95;4.13;;;3.20;99.90;;;;;;5074117;28;20055;-50
2024/01/27 07:24:13;;;;;;;10.35;2.70;;;2.10;99.90;;;;;;5073113;28;20043;-48
2024/01/27 07:26:39;;;;;;;12.32;2.50;;;2.90;99.90;;;;;;5073103;28;20079;-51
2024/01/27 07:29:04;;;;;;;12.88;2.50;;;2.70;99.90;;;;;;5073471;28;20056;-50
2024/01/27 07:31:31;;;;;;;13.65;3.55;;;3.20;99.90;;;;;;5073344;28;20490;-48
2024/01/27 07:33:56;;;;;;;18.42;2.75;;;1.90;99.90;;;;;;5073011;28;20052;-51
2024/01/27 07:36:22;;;;;;;10.48;2.47;;;1.80;99.90;;;;;;5073241;28;20040;-50
2024/01/27 07:38:48;;;;;;;10.23;1.73;;;2.20;99.90;;;;;;5072657;28;20702;-51
2024/01/27 07:41:13;;;;;;;16.85;2.58;;;1.70;99.90;;;;;;5073403;28;20465;-49
2024/01/27 07:43:39;;;;;;;13.40;2.65;;;2.60;99.90;;;;;;5072057;28;20051;-49
2024/01/27 07:46:05;;;;;;;13.57;2.50;;;2.30;99.90;;;;;;5067715;28;20032;-46
2024/01/27 07:48:31;;;;;;;8.38;2.17;;;3.00;99.90;;;;;;5062036;28;20187;-51
2024/01/27 07:50:57;;;;;;;19.00;2.28;;;2.20;99.90;;;;;;5061575;28;20040;-49
2024/01/27 07:53:23;;;;;;;15.70;2.38;;;1.90;99.90;;;;;;5063135;28;20056;-50
2024/01/27 07:55:50;;;;;;;12.48;2.08;;;3.10;99.90;;;;;;5060620;28;20044;-52
2024/01/27 07:58:16;;;;;;;17.55;2.60;;;3.20;99.90;;;;;;5062064;28;20033;-49
2024/01/27 08:00:42;;;;;;;12.10;2.92;;;2.10;99.90;;;;;;5065891;28;20098;-50
2024/01/27 08:03:07;;;;;;;15.23;2.35;;;3.30;99.90;;;;;;5072272;28;20496;-51
2024/01/27 08:05:33;;;;;;;11.15;2.47;;;1.90;99.90;;;;;;5072553;28;20049;-48
2024/01/27 08:07:59;;;;;;;9.90;2.42;;;2.80;99.90;;;;;;5072555;28;20478;-47
2024/01/27 08:10:24;;;;;;;11.40;2.38;;;2.00;99.90;;;;;;5072576;28;20510;-49
2024/01/27 08:12:53;;;;;;;15.77;2.40;;;2.40;99.90;;;;;;5072473;28;20056;-52
2024/01/27 08:15:18;;;;;;;18.70;2.65;;;2.00;99.90;;;;;;5072345;28;20041;-50
2024/01/27 08:17:44;;;;;;;13.98;2.78;;;2.00;99.90;;;;;;5072596;28;20039;-49
2024/01/27 08:20:10;;;;;;;15.75;2.83;;;3.50;99.90;;;;;;5072672;28;20052;-47
2024/01/27 08:22:36;;;;;;;14.57;2.45;;;2.90;99.90;;;;;;5070525;28;20082;-47
2024/01/27 08:25:01;;;;;;;11.02;2.40;;;3.40;99.90;;;;;;5072423;28;20565;-51
2024/01/27 08:27:27;;;;;;;10.15;2.08;;;2.80;99.90;;;;;;5072167;28;20044;-52
2024/01/27 08:29:53;;;;;;;16.70;3.67;;;2.20;99.90;;;;;;5071876;28;20039;-48
2024/01/27 08:32:18;;;;;;;15.10;2.67;;;3.30;99.90;;;;;;5071714;28;20055;-47
2024/01/27 08:34:44;;;;;;;14.68;2.92;;;2.20;99.90;;;;;;5072060;28;20111;-48
2024/01/27 08:37:19;;;;;;;15.80;3.28;;;2.90;99.90;;;;;;5072003;28;20033;-47
2024/01/27 08:39:45;;;;;;;15.55;2.80;;;2.10;99.90;;;;;;5072173;28;20442;-47
2024/01/27 08:42:11;;;;;;;13.52;2.95;;;3.50;99.90;;;;;;5070554;28;20044;-50
2024/01/27 08:44:38;;;;;;;12.40;2.75;;;3.50;99.90;;;;;;5071845;28;20033;-48
2024/01/27 08:47:04;;;;;;;14.07;2.90;;;2.50;99.90;;;;;;5071867;28;20039;-47
2024/01/27 08:49:30;;;;;;;16.10;2.90;;;3.70;99.90;;;;;;5071579;28;20377;-48
2024/01/27 08:51:55;;;;;;;10.13;2.67;;;3.80;99.90;;;;;;5071891;28;20048;-47
2024/01/27 08:54:22;;;;;;;10.13;2.28;;;3.40;99.90;;;;;;5071546;28;20342;-49
2024/01/27 08:56:47;;;;;;;11.57;2.63;;;2.50;99.90;;;;;;5071472;28;20042;-51
2024/01/27 08:59:13;;;;;;;17.25;3.42;;;3.90;99.90;;;;;;5071611;28;20579;-48
2024/01/27 09:01:39;;;;;;;12.15;3.42;;;3.20;99.90;;;;;;5070186;28;20066;-51
2024/01/27 09:04:04;;;;;;;14.70;4.03;;;2.90;99.90;;;;;;5071452;28;20041;-47
2024/01/27 09:06:30;;;;;;;14.07;2.63;;;3.90;99.90;;;;;;5071553;28;20626;-50
2024/01/27 09:08:55;;;;;;;12.98;2.70;;;4.10;99.90;;;;;;5071413;28;20113;-47
2024/01/27 09:11:27;;;;;;;15.05;2.90;;;2.60;99.90;;;;;;5071521;28;20046;-47
2024/01/27 09:13:53;;;;;;;11.73;2.42;;;3.90;99.90;;;;;;5070918;28;20091;-47
2024/01/27 09:16:19;;;;;;;14.80;2.78;;;4.10;99.90;;;;;;5071219;28;20075;-51
2024/01/27 09:18:45;;;;;;;16.27;3.28;;;2.80;99.90;;;;;;5071277;28;20450;-50
2024/01/27 09:21:11;;;;;;;13.27;3.13;;;3.70;99.90;;;;;;5071407;28;20040;-48
2024/01/27 09:23:37;;;;;;;17.77;3.10;;;2.90;99.90;;;;;;5071098;28;20041;-47
2024/01/27 09:26:04;;;;;;;16.90;3.65;;;4.40;99.90;;;;;;5071280;28;20051;-51
2024/01/27 09:28:29;;;;;;;19.38;3.92;;;3.10;99.90;;;;;;5071099;28;20129;-50
2024/01/27 09:30:55;;;;;;;16.35;3.67;;;3.50;99.90;;;;;;5071329;28;20075;-48
2024/01/27 09:33:22;;;;;;;10.43;3.17;;;3.20;99.90;;;;;;5071203;28;20048;-51
2024/01/27 09:35:49;;;;;;;12.68;2.83;;;4.70;99.90;;;;;;5070587;28;20165;-48
2024/01/27 09:38:15;;;;;;;17.58;4.10;;;4.70;99.90;;;;;;5071985;28;20510;-51
2024/01/27 09:40:41;;;;;;;20.08;3.42;;;4.60;99.90;;;;;;5071778;28;20032;-48
2024/01/27 09:43:09;;;;;;;15.10;4.35;;;3.30;99.90;;;;;;5071793;28;20040;-51
2024/01/27 09:45:36;;;;;;;17.50;5.03;;;3.40;99.90;;;;;;5071887;28;20404;-51
2024/01/27 09:48:05;;;;;;;12.88;4.60;;;3.50;99.90;;;;;;5072117;28;20111;-50
2024/01/27 09:50:30;;;;;;;10.38;3.40;;;3.60;99.90;;;;;;5071712;28;20041;-50
2024/01/27 09:52:56;;;;;;;16.73;4.25;;;3.70;99.90;;;;;;5070231;28;20051;-51
2024/01/27 09:55:22;;;;;;;20.02;4.13;;;4.70;99.90;;;;;;5071924;28;20116;-47
2024/01/27 09:57:48;;;;;;;20.25;4.00;;;3.70;99.90;;;;;;5070384;28;20404;-51
2024/01/27 10:00:16;;;;;;;20.20;5.57;;;4.00;99.90;;;;;;5070346;28;20120;-51
2024/01/27 10:02:45;;;;;;;15.02;3.80;;;3.90;99.90;;;;;;5072009;28;20046;-48
2024/01/27 10:05:11;;;;;;;17.92;3.97;;;4.00;99.90;;;;;;5058285;28;20103;-48
2024/01/27 10:07:37;;;;;;;16.25;3.72;;;4.50;99.90;;;;;;5062059;28;20032;-49
2024/01/27 10:10:04;;;;;;;15.13;4.63;;;4.80;99.90;;;;;;5055803;28;20382;-48
2024/01/27 10:12:32;;;;;;;14.38;4.13;;;5.30;99.90;;;;;;5051331;28;20049;-52
2024/01/27 10:14:58;;;;;;;22.80;4.32;;;5.80;99.90;;;;;;5051071;28;20037;-49
2024/01/27 10:17:32;;;;;;;22.77;5.45;;;5.80;99.90;;;;;;5051340;28;20037;-48
2024/01/27 10:20:05;;;;;;;11.30;3.38;;;5.40;99.90;;;;;;5051462;28;20110;-48
2024/01/27 10:22:41;;;;;;;15.13;5.50;;;6.00;99.90;;;;;;5050004;28;20095;-46
2024/01/27 10:25:08;;;;;;;18.33;4.32;;;5.80;99.90;;;;;;5052651;28;20080;-47
2024/01/27 10:27:34;;;;;;;13.90;4.00;;;4.70;99.90;;;;;;5055062;28;20052;-50
2024/01/27 10:29:59;;;;;;;14.63;3.85;;;6.10;99.90;;;;;;5055508;28;20037;-52
2024/01/27 10:32:25;;;;;;;19.85;4.25;;;4.80;99.90;;;;;;5055165;28;20396;-52
2024/01/27 10:35:10;;;;;;;16.38;4.07;;;5.60;99.90;;;;;;5055233;28;20384;-49
2024/01/27 10:37:37;;;;;;;22.02;4.63;;;5.00;99.90;;;;;;5054939;28;20496;-50
2024/01/27 10:40:10;;;;;;;18.65;4.38;;;6.40;99.90;;;;;;5055055;28;20049;-52
2024/01/27 10:42:37;;;;;;;15.30;4.63;;;5.10;99.90;;;;;;5055165;28;20048;-47
2024/01/27 10:45:04;;;;;;;17.92;5.00;;;5.10;99.90;;;;;;5053887;28;20040;-51
2024/01/27 10:47:31;;;;;;;17.38;4.50;;;6.00;99.90;;;;;;5053678;28;20400;-49
2024/01/27 10:49:59;;;;;;;16.60;4.80;;;5.00;99.90;;;;;;5054984;28;20123;-48
2024/01/27 10:52:32;;;;;;;18.40;4.47;;;6.40;99.90;;;;;;5053411;28;20041;-50
2024/01/27 10:55:00;;;;;;;19.73;5.25;;;6.70;99.90;;;;;;5054732;28;20053;-49
2024/01/27 10:57:26;;;;;;;12.98;4.22;;;5.90;99.90;;;;;;5055061;28;20045;-50
2024/01/27 10:59:54;;;;;;;16.10;4.88;;;6.60;99.90;;;;;;5054817;28;20073;-48
2024/01/27 11:02:21;;;;;;;15.13;3.42;;;6.30;99.90;;;;;;5054679;28;20076;-50
2024/01/27 11:04:49;;;;;;;17.85;4.30;;;6.90;99.90;;;;;;5054683;28;20033;-51
2024/01/27 11:07:16;;;;;;;16.65;3.15;;;7.20;99.90;;;;;;5054735;28;20041;-51
2024/01/27 11:09:43;;;;;;;15.38;3.10;;;7.20;99.90;;;;;;5054825;28;20053;-48
2024/01/27 11:12:10;;;;;;;18.13;3.30;;;5.80;99.90;;;;;;5054455;28;20037;-48
2024/01/27 11:14:35;;;;;;;21.52;4.05;;;6.10;99.90;;;;;;5052694;28;20067;-49
2024/01/27 11:17:02;;;;;;;15.77;3.17;;;7.30;99.90;;;;;;5054475;28;20041;-47
2024/01/27 11:19:27;;;;;;;16.65;3.05;;;7.40;99.90;;;;;;5054224;28;20040;-50
2024/01/27 11:22:03;;;;;;;19.15;3.63;;;6.30;99.90;;;;;;5054234;28;20159;-48
2024/01/27 11:24:29;;;;;;;14.13;3.28;;;7.50;99.90;;;;;;5063077;28;20032;-50
2024/01/27 11:27:05;;;;;;;16.92;3.58;;;6.50;99.90;;;;;;5072671;28;20067;-52
2024/01/27 11:29:32;;;;;;;14.52;3.58;;;6.70;99.90;;;;;;5074215;28;20048;-50
2024/01/27 11:32:04;;;;;;;19.75;3.88;;;7.50;99.90;;;;;;5072913;28;20055;-50
2024/01/27 11:34:47;;;;;;;13.80;2.75;;;7.30;99.90;;;;;;5074108;28;20124;-49
2024/01/27 11:37:14;;;;;;;18.42;3.47;;;7.40;99.90;;;;;;5073792;28;20182;-50
2024/01/27 11:39:40;;;;;;;21.52;3.65;;;6.70;99.90;;;;;;5073750;28;20079;-51
2024/01/27 11:42:07;;;;;;;21.60;3.58;;;7.60;99.90;;;;;;5073924;28;20067;-49
2024/01/27 11:44:40;;;;;;;12.00;3.45;;;6.90;99.90;;;;;;5073673;28;20079;-49
2024/01/27 11:47:19;;;;;;;20.95;3.10;;;7.40;99.90;;;;;;5072255;28;20070;-48
2024/01/27 11:49:53;;;;;;;17.15;3.55;;;7.30;99.90;;;;;;5073755;28;20039;-52
2024/01/27 11:52:19;;;;;;;17.63;3.42;;;7.30;99.90;;;;;;5073410;28;20047;-51
2024/01/27 11:54:45;;;;;;;20.73;3.70;;;7.70;99.90;;;;;;5073281;28;20052;-51
2024/01/27 11:57:10;;;;;;;16.52;3.95;;;7.10;99.90;;;;;;5073560;28;20089;-49
2024/01/27 11:59:36;;;;;;;13.10;3.10;;;7.30;99.90;;;;;;5073784;28;20374;-48
2024/01/27 12:02:03;;;;;;;15.85;3.08;;;7.10;99.90;;;;;;5073545;28;20044;-50
2024/01/27 12:04:29;;;;;;;17.88;3.35;;;7.80;99.90;;;;;;5073233;28;20049;-50
2024/01/27 12:06:55;;;;;;;16.45;2.78;;;7.70;99.90;;;;;;5073547;28;20047;-47
2024/01/27 12:09:22;;;;;;;17.08;2.97;;;7.80;99.90;;;;;;5073271;28;20033;-48
2024/01/27 12:11:48;;;;;;;14.63;2.90;;;7.40;99.90;;;;;;5073152;28;20036;-47
2024/01/27 12:14:13;;;;;;;10.32;2.60;;;7.20;99.90;;;;;;5073518;28;20032;-48
2024/01/27 12:16:40;;;;;;;13.38;2.60;;;7.90;99.90;;;;;;5072940;28;20036;-52
2024/01/27 12:19:06;;;;;;;12.65;2.55;;;7.70;99.90;;;;;;5073258;28;20131;-49
2024/01/27 12:21:31;;;;;;;13.55;3.08;;;7.50;99.90;;;;;;5072975;28;20532;-49
2024/01/27 12:23:58;;;;;;;17.60;2.95;;;7.70;99.90;;;;;;5073228;28;20028;-50
2024/01/27 12:26:29;;;;;;;12.60;2.85;;;7.90;99.90;;;;;;5072840;28;20486;-51
2024/01/27 12:28:55;;;;;;;16.25;2.78;;;7.40;99.90;;;;;;5073129;28;20041;-50
2024/01/27 12:31:23;;;;;;;11.25;2.63;;;7.60;99.90;;;;;;5073144;28;20543;-50
2024/01/27 12:33:55;;;;;;;16.55;4.10;;;7.80;99.90;;;;;;5072663;28;20052;-49
2024/01/27 12:36:21;;;;;;;19.40;3.17;;;7.40;99.90;;;;;;5072478;28;20033;-51
2024/01/27 12:39:08;;;;;;;14.07;2.60;;;8.00;99.90;;;;;;5071339;28;20520;-47
2024/01/27 12:41:34;;;;;;;13.93;3.90;;;7.40;99.90;;;;;;5072801;28;20044;-50
2024/01/27 12:44:01;;;;;;;11.95;2.80;;;8.00;99.90;;;;;;5069401;28;20385;-50